Time;durP1;ratioP1;P1;durP2;ratioP2;P2;SDS_P1;SDS_P2;PMS_P1;PMS_P2;Temp;Humidity;BMP_temperature;BMP_pressure;BME280_temperature;BME280_humidity;BME280_pressure;Samples;Min_cycle;Max_cycle;Signal;HPM_P1;HPM_P2
2022/08/31 00:05:38;;;;;;;3.17;1.10;;;16.10;99.90;;;;;;5097522;28;20097;-53
2022/08/31 00:08:05;;;;;;;3.80;1.00;;;16.10;99.90;;;;;;5097885;28;20504;-53
2022/08/31 00:10:30;;;;;;;2.50;0.90;;;16.10;99.90;;;;;;5095677;28;20076;-53
2022/08/31 00:12:56;;;;;;;4.57;0.98;;;16.10;99.90;;;;;;5098255;28;20067;-53
2022/08/31 00:15:23;;;;;;;5.13;0.90;;;16.10;99.90;;;;;;5095886;28;20044;-52
2022/08/31 00:17:51;;;;;;;3.17;0.93;;;16.10;99.90;;;;;;5086454;28;20040;-51
2022/08/31 00:20:18;;;;;;;2.92;1.00;;;16.00;99.90;;;;;;5088412;28;20040;-51
2022/08/31 00:22:44;;;;;;;6.80;1.13;;;16.00;99.90;;;;;;5086793;28;20039;-51
2022/08/31 00:25:10;;;;;;;2.90;0.90;;;15.90;99.90;;;;;;5084087;28;20053;-51
2022/08/31 00:27:36;;;;;;;2.08;0.80;;;15.90;99.90;;;;;;5076664;28;20041;-50
2022/08/31 00:30:04;;;;;;;2.67;0.85;;;15.90;99.90;;;;;;5077625;28;20063;-51
2022/08/31 00:32:30;;;;;;;2.75;1.00;;;15.90;99.90;;;;;;5076965;28;20120;-51
2022/08/31 00:34:56;;;;;;;2.25;1.00;;;15.80;99.90;;;;;;5087579;28;20095;-51
2022/08/31 00:37:22;;;;;;;2.30;0.80;;;15.90;99.90;;;;;;5089819;28;20060;-52
2022/08/31 00:39:47;;;;;;;1.80;0.77;;;15.90;99.90;;;;;;5080210;28;20045;-51
2022/08/31 00:42:13;;;;;;;3.42;1.15;;;15.80;99.90;;;;;;5080983;28;20048;-51
2022/08/31 00:44:39;;;;;;;3.10;1.08;;;15.80;99.90;;;;;;5080124;28;20037;-51
2022/08/31 00:47:05;;;;;;;3.85;0.93;;;15.80;99.90;;;;;;5081205;28;20041;-51
2022/08/31 00:49:34;;;;;;;4.47;0.95;;;15.80;99.90;;;;;;5080236;28;20074;-52
2022/08/31 00:52:14;;;;;;;2.88;0.85;;;15.70;99.90;;;;;;5080650;28;20048;-51
2022/08/31 00:54:46;;;;;;;4.07;1.08;;;15.70;99.90;;;;;;5079337;28;20476;-52
2022/08/31 00:57:14;;;;;;;1.88;0.70;;;15.60;99.90;;;;;;5079923;28;20095;-52
2022/08/31 00:59:42;;;;;;;3.10;0.85;;;15.60;99.90;;;;;;5088115;28;20044;-48
2022/08/31 01:02:08;;;;;;;2.97;0.90;;;15.50;99.90;;;;;;5088360;28;20036;-52
2022/08/31 01:04:34;;;;;;;2.38;0.93;;;15.50;99.90;;;;;;5098157;28;20423;-52
2022/08/31 01:07:02;;;;;;;2.65;0.95;;;15.50;99.90;;;;;;5100624;28;20088;-53
2022/08/31 01:09:31;;;;;;;1.45;0.70;;;15.50;99.90;;;;;;5098683;28;20096;-52
2022/08/31 01:11:57;;;;;;;2.08;0.90;;;15.50;99.90;;;;;;5100419;28;20032;-51
2022/08/31 01:14:24;;;;;;;3.25;1.00;;;15.40;99.90;;;;;;5100026;28;20092;-53
2022/08/31 01:16:53;;;;;;;1.95;0.80;;;15.50;99.90;;;;;;5095684;28;20063;-49
2022/08/31 01:19:44;;;;;;;3.47;0.95;;;15.40;99.90;;;;;;5078240;28;20067;-51
2022/08/31 01:22:41;;;;;;;1.73;0.68;;;15.40;99.90;;;;;;5080109;28;20059;-53
2022/08/31 01:25:07;;;;;;;2.38;0.63;;;15.40;99.90;;;;;;5056654;28;20084;-52
2022/08/31 01:27:35;;;;;;;3.08;0.80;;;15.40;99.90;;;;;;5079451;28;20044;-50
2022/08/31 01:30:05;;;;;;;1.77;0.80;;;15.40;99.90;;;;;;5079030;28;20104;-52
2022/08/31 01:32:31;;;;;;;2.30;0.80;;;15.40;99.90;;;;;;5079467;28;20059;-52
2022/08/31 01:34:57;;;;;;;2.38;1.00;;;15.40;99.90;;;;;;5079933;28;20080;-53
2022/08/31 01:37:23;;;;;;;2.13;0.60;;;15.40;99.90;;;;;;5081491;28;20095;-54
2022/08/31 01:39:49;;;;;;;2.55;0.70;;;15.30;99.90;;;;;;5099316;28;20040;-53
2022/08/31 01:42:16;;;;;;;1.70;0.80;;;15.30;99.90;;;;;;5098647;28;20127;-53
2022/08/31 01:44:41;;;;;;;3.05;0.80;;;15.30;99.90;;;;;;5099200;28;20762;-52
2022/08/31 01:47:07;;;;;;;2.17;0.80;;;15.30;99.90;;;;;;5099218;28;20066;-52
2022/08/31 01:49:32;;;;;;;3.15;0.80;;;15.20;99.90;;;;;;5097831;28;20153;-50
2022/08/31 01:51:58;;;;;;;3.70;1.67;;;15.20;99.90;;;;;;5098379;28;20052;-53
2022/08/31 01:54:26;;;;;;;3.05;0.95;;;15.20;99.90;;;;;;5099849;28;20040;-51
2022/08/31 01:56:52;;;;;;;3.20;1.05;;;15.10;99.90;;;;;;5099364;28;20064;-53
2022/08/31 01:59:20;;;;;;;3.13;0.90;;;15.10;99.90;;;;;;5099760;28;20043;-53
2022/08/31 02:01:51;;;;;;;4.05;1.00;;;15.00;99.90;;;;;;5098902;28;20040;-53
2022/08/31 02:04:20;;;;;;;3.67;1.08;;;15.10;99.90;;;;;;5099712;28;20481;-52
2022/08/31 02:06:49;;;;;;;2.75;0.90;;;14.90;99.90;;;;;;5099156;28;20052;-50
2022/08/31 02:09:15;;;;;;;1.83;0.90;;;14.80;99.90;;;;;;5099270;28;20040;-53
2022/08/31 02:11:41;;;;;;;2.42;1.00;;;14.90;99.90;;;;;;5099181;28;20047;-52
2022/08/31 02:14:08;;;;;;;3.45;1.00;;;14.80;99.90;;;;;;5098847;28;20051;-52
2022/08/31 02:16:35;;;;;;;2.85;1.10;;;14.80;99.90;;;;;;5095046;28;20107;-51
2022/08/31 02:19:01;;;;;;;2.60;1.05;;;14.70;99.90;;;;;;5087182;28;20054;-52
2022/08/31 02:21:26;;;;;;;2.33;1.02;;;14.70;99.90;;;;;;5087397;28;20040;-53
2022/08/31 02:23:52;;;;;;;3.30;1.20;;;14.70;99.90;;;;;;5097901;28;20042;-53
2022/08/31 02:26:18;;;;;;;3.55;1.00;;;14.50;99.90;;;;;;5099006;28;20091;-53
2022/08/31 02:28:45;;;;;;;2.35;0.95;;;14.50;99.90;;;;;;5099114;28;20135;-53
2022/08/31 02:31:11;;;;;;;2.47;1.02;;;14.40;99.90;;;;;;5098286;28;20066;-53
2022/08/31 02:33:36;;;;;;;3.58;1.30;;;14.50;99.90;;;;;;5069295;28;20626;-53
2022/08/31 02:36:03;;;;;;;3.67;1.10;;;14.40;99.90;;;;;;5088065;28;20036;-52
2022/08/31 02:38:33;;;;;;;2.08;0.90;;;14.40;99.90;;;;;;5086526;28;20445;-52
2022/08/31 02:40:59;;;;;;;2.30;0.80;;;14.40;99.90;;;;;;5086733;28;20051;-51
2022/08/31 02:43:25;;;;;;;3.00;0.90;;;14.40;99.90;;;;;;5081333;28;20054;-53
2022/08/31 02:45:51;;;;;;;2.88;0.90;;;14.50;99.90;;;;;;5088404;28;20036;-51
2022/08/31 02:48:17;;;;;;;5.57;1.17;;;14.40;99.90;;;;;;5088096;28;20313;-51
2022/08/31 02:50:46;;;;;;;3.10;1.10;;;14.50;99.90;;;;;;5098789;28;20040;-50
2022/08/31 02:53:14;;;;;;;2.72;1.38;;;14.50;99.90;;;;;;5098075;28;20072;-52
2022/08/31 02:55:40;;;;;;;2.38;0.90;;;14.50;99.90;;;;;;5097090;28;20040;-52
2022/08/31 02:58:06;;;;;;;2.20;0.90;;;14.50;99.90;;;;;;5098114;28;20060;-51
2022/08/31 03:00:32;;;;;;;3.75;1.65;;;14.50;99.90;;;;;;5095179;28;20040;-53
2022/08/31 03:02:58;;;;;;;1.65;0.82;;;14.40;99.90;;;;;;5088207;28;20123;-51
2022/08/31 03:05:24;;;;;;;2.60;1.02;;;14.40;99.90;;;;;;5085784;28;20043;-52
2022/08/31 03:07:51;;;;;;;3.63;1.00;;;14.40;99.90;;;;;;5078281;28;20660;-52
2022/08/31 03:10:19;;;;;;;2.33;0.90;;;14.40;99.90;;;;;;5077067;28;20178;-53
2022/08/31 03:12:47;;;;;;;2.08;0.90;;;14.50;99.90;;;;;;5078497;28;20078;-51
2022/08/31 03:15:13;;;;;;;2.72;0.98;;;14.50;99.90;;;;;;5077786;28;20048;-51
2022/08/31 03:17:39;;;;;;;3.28;0.82;;;14.40;99.90;;;;;;5089943;28;20067;-53
2022/08/31 03:20:06;;;;;;;2.55;0.90;;;14.50;99.90;;;;;;5098394;28;20054;-52
2022/08/31 03:22:33;;;;;;;2.83;0.93;;;14.40;99.90;;;;;;5098004;28;20048;-51
2022/08/31 03:24:59;;;;;;;3.20;1.00;;;14.40;99.90;;;;;;5097887;28;20052;-52
2022/08/31 03:27:26;;;;;;;3.50;1.08;;;14.30;99.90;;;;;;5095554;28;20074;-53
2022/08/31 03:29:52;;;;;;;2.35;0.90;;;14.40;99.90;;;;;;5088790;28;20055;-49
2022/08/31 03:32:19;;;;;;;2.88;1.00;;;14.30;99.90;;;;;;5084308;28;20071;-53
2022/08/31 03:34:44;;;;;;;3.35;0.98;;;14.30;99.90;;;;;;5078060;28;20120;-52
2022/08/31 03:37:11;;;;;;;2.78;1.08;;;14.20;99.90;;;;;;5082045;28;20076;-52
2022/08/31 03:39:37;;;;;;;2.67;0.98;;;14.30;99.90;;;;;;5086257;28;20048;-53
2022/08/31 03:42:05;;;;;;;3.00;1.20;;;14.20;99.90;;;;;;5081765;28;20055;-53
2022/08/31 03:44:32;;;;;;;3.65;1.20;;;14.20;99.90;;;;;;5076991;28;20099;-53
2022/08/31 03:46:58;;;;;;;5.40;1.30;;;14.10;99.90;;;;;;5078068;28;20087;-53
2022/08/31 03:49:24;;;;;;;2.90;1.20;;;14.20;99.90;;;;;;5077236;28;20074;-54
2022/08/31 03:51:51;;;;;;;3.00;1.10;;;14.20;99.90;;;;;;5077900;28;20062;-53
2022/08/31 03:54:17;;;;;;;3.35;1.20;;;14.20;99.90;;;;;;5077696;28;20045;-52
2022/08/31 03:56:43;;;;;;;5.20;1.33;;;14.20;99.90;;;;;;5077124;28;20075;-52
2022/08/31 03:59:09;;;;;;;3.75;1.23;;;14.20;99.90;;;;;;5077883;28;20040;-52
2022/08/31 04:01:35;;;;;;;4.60;1.30;;;14.20;99.90;;;;;;5076917;28;20055;-53
2022/08/31 04:04:02;;;;;;;4.72;1.30;;;14.10;99.90;;;;;;5077788;28;20033;-52
2022/08/31 04:06:28;;;;;;;3.40;1.20;;;14.10;99.90;;;;;;5076800;28;20040;-53
2022/08/31 04:08:54;;;;;;;3.17;1.10;;;14.10;99.90;;;;;;5084095;28;20032;-52
2022/08/31 04:11:20;;;;;;;3.25;1.30;;;14.00;99.90;;;;;;5088641;28;20555;-52
2022/08/31 04:13:46;;;;;;;2.97;1.00;;;13.90;99.90;;;;;;5098330;28;20101;-53
2022/08/31 04:16:16;;;;;;;2.45;1.08;;;13.90;99.90;;;;;;5101572;28;20040;-53
2022/08/31 04:18:44;;;;;;;4.00;1.10;;;13.90;99.90;;;;;;5080606;28;20087;-53
2022/08/31 04:21:21;;;;;;;3.00;1.25;;;13.80;99.90;;;;;;5081333;28;20040;-53
2022/08/31 04:23:48;;;;;;;4.05;1.40;;;13.90;99.90;;;;;;5080998;28;20064;-52
2022/08/31 04:26:15;;;;;;;3.13;1.38;;;13.80;99.90;;;;;;5081118;28;20048;-53
2022/08/31 04:28:41;;;;;;;4.05;1.30;;;13.80;99.90;;;;;;5081176;28;20417;-53
2022/08/31 04:31:07;;;;;;;3.83;1.38;;;13.80;99.90;;;;;;5079372;28;20113;-53
2022/08/31 04:33:38;;;;;;;3.47;1.30;;;13.70;99.90;;;;;;5080823;28;20052;-52
2022/08/31 04:36:08;;;;;;;2.90;1.10;;;13.60;99.90;;;;;;5078905;28;20045;-50
2022/08/31 04:38:35;;;;;;;4.68;1.48;;;13.60;99.90;;;;;;5092748;28;20044;-49
2022/08/31 04:41:05;;;;;;;3.30;1.35;;;13.60;99.90;;;;;;5100808;28;20085;-52
2022/08/31 04:43:31;;;;;;;2.75;1.20;;;13.60;99.90;;;;;;5100868;28;20056;-53
2022/08/31 04:45:57;;;;;;;3.90;1.30;;;13.50;99.90;;;;;;5100930;28;20074;-54
2022/08/31 04:48:23;;;;;;;5.13;1.60;;;13.70;99.90;;;;;;5099029;28;20053;-54
2022/08/31 04:50:49;;;;;;;3.88;1.27;;;13.70;99.90;;;;;;5101093;28;20074;-52
2022/08/31 04:53:15;;;;;;;8.60;2.47;;;13.70;99.90;;;;;;5098872;28;20054;-54
2022/08/31 04:55:42;;;;;;;3.75;1.40;;;13.60;99.90;;;;;;5100847;28;20060;-53
2022/08/31 04:58:08;;;;;;;7.43;2.67;;;13.60;99.90;;;;;;5100427;28;20051;-53
2022/08/31 05:00:34;;;;;;;5.35;2.20;;;13.50;99.90;;;;;;5100656;28;20438;-53
2022/08/31 05:03:00;;;;;;;5.65;1.63;;;13.50;99.90;;;;;;5100745;28;20036;-53
2022/08/31 05:05:26;;;;;;;3.58;1.60;;;13.40;99.90;;;;;;5100331;28;20097;-50
2022/08/31 05:07:51;;;;;;;3.50;1.50;;;13.50;99.90;;;;;;5100501;28;20127;-50
2022/08/31 05:10:17;;;;;;;3.67;1.33;;;13.40;99.90;;;;;;5099593;28;20048;-53
2022/08/31 05:12:43;;;;;;;3.80;1.60;;;13.50;99.90;;;;;;5100882;28;20115;-53
2022/08/31 05:15:09;;;;;;;3.83;1.45;;;13.50;99.90;;;;;;5100115;28;20044;-52
2022/08/31 05:17:35;;;;;;;4.10;1.55;;;13.60;99.90;;;;;;5085615;28;20024;-52
2022/08/31 05:20:00;;;;;;;3.97;1.80;;;13.60;99.90;;;;;;5076863;28;20054;-53
2022/08/31 05:22:29;;;;;;;4.28;1.77;;;13.70;99.90;;;;;;5076515;28;20492;-52
2022/08/31 05:24:54;;;;;;;3.80;1.38;;;13.80;99.90;;;;;;5076874;28;20690;-54
2022/08/31 05:27:20;;;;;;;8.10;4.13;;;13.90;99.90;;;;;;5076288;28;20041;-54
2022/08/31 05:29:45;;;;;;;8.07;4.05;;;13.90;99.90;;;;;;5076573;28;20084;-53
2022/08/31 05:32:11;;;;;;;4.38;1.90;;;14.00;99.90;;;;;;5074886;28;20077;-52
2022/08/31 05:34:37;;;;;;;5.03;2.03;;;13.90;99.90;;;;;;5075276;28;20112;-53
2022/08/31 05:37:03;;;;;;;4.78;1.60;;;13.90;99.90;;;;;;5076644;28;20060;-53
2022/08/31 05:39:29;;;;;;;6.03;1.55;;;14.00;99.90;;;;;;5095043;28;20419;-53
2022/08/31 05:41:55;;;;;;;4.90;1.75;;;14.20;99.90;;;;;;5096459;28;20048;-52
2022/08/31 05:44:21;;;;;;;4.88;1.80;;;14.20;99.90;;;;;;5094448;28;20047;-53
2022/08/31 05:46:47;;;;;;;4.70;1.60;;;14.20;99.90;;;;;;5096768;28;20069;-53
2022/08/31 05:49:13;;;;;;;4.88;1.67;;;14.30;99.90;;;;;;5096130;28;20047;-53
2022/08/31 05:51:39;;;;;;;5.43;1.85;;;14.30;99.90;;;;;;5096769;28;20074;-54
2022/08/31 05:54:06;;;;;;;5.65;1.58;;;14.30;99.90;;;;;;5096114;28;20036;-53
2022/08/31 05:56:33;;;;;;;5.55;1.95;;;14.40;99.90;;;;;;5095877;28;20060;-52
2022/08/31 05:58:59;;;;;;;3.85;1.50;;;14.50;99.90;;;;;;5096365;28;20039;-54
2022/08/31 06:01:31;;;;;;;5.38;1.70;;;14.60;99.90;;;;;;5095690;28;20044;-53
2022/08/31 06:03:58;;;;;;;4.57;1.83;;;14.60;99.90;;;;;;5094898;28;20078;-53
2022/08/31 06:06:24;;;;;;;3.67;1.55;;;14.80;99.90;;;;;;5095797;28;20079;-49
2022/08/31 06:08:50;;;;;;;4.55;1.52;;;14.80;99.90;;;;;;5096288;28;20040;-52
2022/08/31 06:11:18;;;;;;;4.10;1.60;;;14.90;99.90;;;;;;5096292;28;20126;-53
2022/08/31 06:13:49;;;;;;;3.50;1.50;;;15.00;99.90;;;;;;5095421;28;20551;-52
2022/08/31 06:16:16;;;;;;;3.90;1.60;;;15.10;99.90;;;;;;5094470;28;20051;-53
2022/08/31 06:18:51;;;;;;;4.55;1.75;;;15.10;99.90;;;;;;5075205;28;20059;-53
2022/08/31 06:21:29;;;;;;;5.35;1.38;;;15.30;99.90;;;;;;5074392;28;20071;-50
2022/08/31 06:23:57;;;;;;;4.43;1.90;;;15.30;99.90;;;;;;5075107;28;20056;-52
2022/08/31 06:26:25;;;;;;;4.45;1.40;;;15.30;99.90;;;;;;5075540;28;20075;-53
2022/08/31 06:28:53;;;;;;;4.55;1.75;;;15.40;99.90;;;;;;5076798;28;20033;-53
2022/08/31 06:31:29;;;;;;;4.13;1.30;;;15.50;99.90;;;;;;5077653;28;20036;-54
2022/08/31 06:33:56;;;;;;;4.40;1.27;;;15.60;99.90;;;;;;5077032;28;20090;-54
2022/08/31 06:36:24;;;;;;;4.30;1.20;;;15.70;99.90;;;;;;5077755;28;20382;-54
2022/08/31 06:38:50;;;;;;;2.45;1.10;;;15.70;99.90;;;;;;5091460;28;20084;-52
2022/08/31 06:41:22;;;;;;;4.07;1.13;;;15.80;99.90;;;;;;5097065;28;20109;-51
2022/08/31 06:43:48;;;;;;;;;;;15.80;99.90;;;;;;5098889;28;20044;-52
2022/08/31 06:46:16;;;;;;;2.20;1.00;;;16.00;99.90;;;;;;5097550;28;19965;-53
2022/08/31 06:48:42;;;;;;;3.95;1.15;;;16.00;99.90;;;;;;5098187;28;20084;-53
2022/08/31 06:51:09;;;;;;;4.40;1.30;;;16.00;99.90;;;;;;5097499;28;20059;-53
2022/08/31 06:53:38;;;;;;;4.78;1.20;;;16.10;99.90;;;;;;5096611;28;20055;-51
2022/08/31 06:56:06;;;;;;;3.20;1.10;;;16.20;99.90;;;;;;5097383;28;20060;-53
2022/08/31 06:58:33;;;;;;;4.35;1.30;;;16.20;99.90;;;;;;5098748;28;20048;-52
2022/08/31 07:01:05;;;;;;;4.60;1.50;;;16.30;99.90;;;;;;5097743;28;20039;-53
2022/08/31 07:03:33;;;;;;;2.40;1.02;;;16.30;99.90;;;;;;5098226;28;20504;-53
2022/08/31 07:06:14;;;;;;;3.60;1.00;;;16.40;99.90;;;;;;5097545;28;20032;-54
2022/08/31 07:08:43;;;;;;;6.82;1.15;;;16.50;99.90;;;;;;5098209;28;20046;-52
2022/08/31 07:11:22;;;;;;;2.80;1.02;;;16.60;99.90;;;;;;5098042;28;20083;-52
2022/08/31 07:13:50;;;;;;;3.25;1.10;;;16.60;99.90;;;;;;5097849;28;20066;-52
2022/08/31 07:16:19;;;;;;;2.85;1.00;;;16.70;99.90;;;;;;5097917;28;20518;-51
2022/08/31 07:18:45;;;;;;;3.60;1.10;;;16.80;99.90;;;;;;5075855;28;20048;-53
2022/08/31 07:21:19;;;;;;;3.10;1.10;;;16.90;99.90;;;;;;5077080;28;20045;-53
2022/08/31 07:23:46;;;;;;;3.05;1.13;;;17.00;99.90;;;;;;5076003;28;20101;-52
2022/08/31 07:26:15;;;;;;;3.28;1.02;;;17.00;99.90;;;;;;5077853;28;20056;-52
2022/08/31 07:28:50;;;;;;;3.42;0.90;;;17.10;99.90;;;;;;5077886;28;20041;-52
2022/08/31 07:31:16;;;;;;;4.07;0.90;;;17.30;99.90;;;;;;5077394;28;20037;-53
2022/08/31 07:33:42;;;;;;;3.83;1.40;;;17.30;99.90;;;;;;5076587;28;20052;-53
2022/08/31 07:36:11;;;;;;;3.20;0.70;;;17.40;99.90;;;;;;5071718;28;20110;-53
2022/08/31 07:44:09;;;;;;;2.40;0.80;;;17.60;99.90;;;;;;5094266;28;20059;-53
2022/08/31 07:46:35;;;;;;;2.90;0.70;;;17.60;99.90;;;;;;5096147;28;20063;-52
2022/08/31 07:49:02;;;;;;;2.22;0.85;;;17.70;99.90;;;;;;5098402;28;20069;-52
2022/08/31 07:51:28;;;;;;;2.30;0.68;;;17.70;99.90;;;;;;5098818;28;20072;-52
2022/08/31 07:53:54;;;;;;;2.33;0.80;;;17.80;99.90;;;;;;5098847;28;20043;-52
2022/08/31 07:56:22;;;;;;;2.00;0.80;;;17.90;99.90;;;;;;5098319;28;20055;-53
2022/08/31 07:58:48;;;;;;;2.75;0.60;;;17.90;99.90;;;;;;5098415;28;20052;-53
2022/08/31 08:01:17;;;;;;;2.13;0.88;;;18.00;99.90;;;;;;5098011;28;20136;-52
2022/08/31 08:03:43;;;;;;;4.82;1.90;;;18.00;99.90;;;;;;5097778;28;20480;-52
2022/08/31 08:06:17;;;;;;;2.75;0.90;;;18.20;99.90;;;;;;5097822;28;20510;-53
2022/08/31 08:08:43;;;;;;;2.55;1.00;;;18.20;99.90;;;;;;5098629;28;20574;-51
2022/08/31 08:11:15;;;;;;;2.42;0.90;;;18.20;99.90;;;;;;5097751;28;20043;-51
2022/08/31 08:13:41;;;;;;;;;;;18.30;99.90;;;;;;5098498;28;20040;-51
2022/08/31 08:16:07;;;;;;;3.50;0.95;;;18.40;99.90;;;;;;5099431;28;19999;-51
2022/08/31 08:18:33;;;;;;;5.15;1.08;;;18.40;99.90;;;;;;5080151;28;20040;-53
2022/08/31 08:20:58;;;;;;;3.22;0.90;;;18.50;99.90;;;;;;5080045;28;20072;-53
2022/08/31 08:23:24;;;;;;;3.92;1.10;;;18.60;99.90;;;;;;5080656;28;20242;-52
2022/08/31 08:25:50;;;;;;;2.92;1.15;;;18.60;99.90;;;;;;5081560;28;20274;-52
2022/08/31 08:28:17;;;;;;;2.88;1.05;;;18.60;99.90;;;;;;5081094;28;20040;-52
2022/08/31 08:30:53;;;;;;;2.20;0.90;;;18.70;99.90;;;;;;5080978;28;20094;-51
2022/08/31 08:33:20;;;;;;;2.47;0.98;;;18.70;99.90;;;;;;5081027;28;20048;-52
2022/08/31 08:36:01;;;;;;;2.92;1.00;;;18.70;99.90;;;;;;5078943;28;20044;-52
2022/08/31 08:38:29;;;;;;;1.88;0.82;;;18.80;99.90;;;;;;5092111;28;20077;-52
2022/08/31 08:41:00;;;;;;;3.67;1.00;;;18.90;99.90;;;;;;5100637;28;20048;-52
2022/08/31 08:43:36;;;;;;;3.42;1.10;;;18.90;99.90;;;;;;5101017;28;20074;-53
2022/08/31 08:46:04;;;;;;;2.75;0.90;;;19.00;99.90;;;;;;5101152;28;20044;-52
2022/08/31 08:48:36;;;;;;;3.28;1.10;;;18.90;99.90;;;;;;5098912;28;20059;-53
2022/08/31 08:51:08;;;;;;;2.17;1.00;;;18.90;99.90;;;;;;5100854;28;20040;-50
2022/08/31 08:53:38;;;;;;;2.40;0.93;;;18.80;99.90;;;;;;5100293;28;20040;-52
2022/08/31 08:56:04;;;;;;;2.53;0.90;;;18.80;99.90;;;;;;5099829;28;20056;-53
2022/08/31 08:58:34;;;;;;;2.67;0.90;;;18.80;99.90;;;;;;5100187;28;20040;-53
2022/08/31 09:01:01;;;;;;;3.22;1.05;;;18.70;99.90;;;;;;5098730;28;20044;-52
2022/08/31 09:03:44;;;;;;;2.53;0.90;;;18.90;99.90;;;;;;5100345;28;20048;-52
2022/08/31 09:06:52;;;;;;;3.00;0.90;;;18.90;99.90;;;;;;5100016;28;20071;-52
2022/08/31 09:09:56;;;;;;;2.60;1.00;;;19.00;99.90;;;;;;5098846;28;20036;-52
2022/08/31 09:13:07;;;;;;;1.98;0.90;;;19.10;99.90;;;;;;5100628;28;20574;-52
2022/08/31 09:15:55;;;;;;;3.28;1.00;;;19.20;99.90;;;;;;5080440;28;20078;-52
2022/08/31 09:18:42;;;;;;;2.90;0.93;;;19.30;99.90;;;;;;5081873;28;20041;-52
2022/08/31 09:21:23;;;;;;;2.60;0.80;;;19.50;99.90;;;;;;5079985;28;20508;-52
2022/08/31 09:24:11;;;;;;;2.25;0.90;;;19.40;99.90;;;;;;5079651;28;20032;-52
2022/08/31 09:26:55;;;;;;;1.92;0.80;;;19.50;99.90;;;;;;5089380;28;20131;-53
2022/08/31 09:29:30;;;;;;;4.05;0.95;;;19.60;99.90;;;;;;5099785;28;20071;-53
2022/08/31 09:32:08;;;;;;;3.83;0.90;;;19.70;99.90;;;;;;5099016;28;20048;-53
2022/08/31 09:34:40;;;;;;;3.17;0.70;;;19.60;99.90;;;;;;5098817;28;20048;-53
2022/08/31 09:37:40;;;;;;;2.25;0.90;;;19.40;99.90;;;;;;5099719;28;20067;-50
2022/08/31 09:40:17;;;;;;;1.58;0.70;;;19.50;99.90;;;;;;5094242;28;20079;-53
2022/08/31 09:42:46;;;;;;;2.03;0.80;;;19.60;99.90;;;;;;5079992;28;20057;-53
2022/08/31 09:45:28;;;;;;;4.95;1.20;;;19.70;99.90;;;;;;5079099;28;20096;-52
2022/08/31 09:47:59;;;;;;;3.80;0.82;;;19.90;99.90;;;;;;5078015;28;20048;-53
2022/08/31 09:50:36;;;;;;;3.03;1.00;;;20.00;99.90;;;;;;5079438;28;20043;-52
2022/08/31 09:56:17;;;;;;;3.63;0.80;;;20.40;99.90;;;;;;5079358;28;20057;-49
2022/08/31 09:58:48;;;;;;;3.35;0.90;;;20.60;99.90;;;;;;5089722;28;20054;-52
2022/08/31 10:01:32;;;;;;;2.72;0.80;;;20.60;99.50;;;;;;5088762;28;20044;-53
2022/08/31 10:04:16;;;;;;;4.88;0.90;;;20.60;99.60;;;;;;5092048;28;20040;-53
2022/08/31 10:06:57;;;;;;;1.90;0.75;;;20.60;99.80;;;;;;5094887;28;20063;-52
2022/08/31 10:09:36;;;;;;;3.85;0.80;;;20.80;99.00;;;;;;5096019;28;20062;-53
2022/08/31 10:12:10;;;;;;;1.38;0.70;;;20.80;99.70;;;;;;5091482;28;20032;-53
2022/08/31 10:14:49;;;;;;;1.38;0.77;;;20.90;99.50;;;;;;5098393;28;20036;-53
2022/08/31 10:17:24;;;;;;;2.80;0.75;;;21.10;98.90;;;;;;5090273;28;20032;-52
2022/08/31 10:20:18;;;;;;;1.48;0.60;;;21.10;99.50;;;;;;5078801;28;20033;-52
2022/08/31 10:23:26;;;;;;;1.55;0.60;;;21.00;99.10;;;;;;5078352;28;20044;-53
2022/08/31 10:25:59;;;;;;;2.55;0.75;;;21.20;98.50;;;;;;5071029;28;20205;-54
2022/08/31 10:28:36;;;;;;;2.85;0.88;;;21.10;98.90;;;;;;5078894;28;20326;-52
2022/08/31 10:31:06;;;;;;;3.67;1.40;;;21.10;97.80;;;;;;5078206;28;20603;-53
2022/08/31 10:36:35;;;;;;;1.98;0.70;;;20.70;98.30;;;;;;5078147;28;20389;-53
2022/08/31 10:39:02;;;;;;;3.28;0.85;;;20.60;98.70;;;;;;5093684;28;20471;-54
2022/08/31 10:41:34;;;;;;;1.50;0.60;;;20.40;98.80;;;;;;5098805;28;20046;-53
2022/08/31 10:44:03;;;;;;;;;;;20.50;98.90;;;;;;5098960;28;20119;-54
2022/08/31 10:46:31;;;;;;;2.67;0.90;;;20.50;98.70;;;;;;5098413;28;20010;-53
2022/08/31 10:48:58;;;;;;;2.10;0.70;;;20.60;99.10;;;;;;5098023;28;20055;-54
2022/08/31 10:51:55;;;;;;;1.73;0.63;;;20.70;99.10;;;;;;5098614;28;20507;-53
2022/08/31 10:54:29;;;;;;;1.75;0.70;;;20.80;98.60;;;;;;5098610;28;20096;-54
2022/08/31 10:57:00;;;;;;;2.35;0.70;;;20.90;98.50;;;;;;5097602;28;20519;-52
2022/08/31 10:59:40;;;;;;;1.83;0.55;;;21.10;97.60;;;;;;5098844;28;20087;-54
2022/08/31 11:02:30;;;;;;;2.45;0.85;;;21.20;98.00;;;;;;5097955;28;20079;-54
2022/08/31 11:05:21;;;;;;;2.05;0.70;;;21.50;98.00;;;;;;5098135;28;20048;-53
2022/08/31 11:08:06;;;;;;;5.82;0.70;;;21.40;97.70;;;;;;5098413;28;20056;-54
2022/08/31 11:10:46;;;;;;;2.08;0.65;;;21.50;97.00;;;;;;5097508;28;20138;-54
2022/08/31 11:13:46;;;;;;;4.20;1.60;;;21.50;97.40;;;;;;5097432;28;20052;-54
2022/08/31 11:16:17;;;;;;;1.88;0.70;;;21.40;97.10;;;;;;5098309;28;20048;-54
2022/08/31 11:18:49;;;;;;;;;;;21.50;97.20;;;;;;5077876;28;20599;-54
2022/08/31 11:21:37;;;;;;;1.42;0.63;;;21.30;97.40;;;;;;5076657;28;20007;-53
2022/08/31 11:24:30;;;;;;;3.63;0.70;;;21.10;97.10;;;;;;5077682;28;20049;-53
2022/08/31 11:27:16;;;;;;;3.03;0.70;;;21.10;97.10;;;;;;5077187;28;20149;-55
2022/08/31 11:30:23;;;;;;;3.03;0.60;;;21.20;97.30;;;;;;5078038;28;20056;-54
2022/08/31 11:32:55;;;;;;;2.42;0.70;;;21.40;97.60;;;;;;5077837;28;20045;-53
2022/08/31 11:36:04;;;;;;;3.80;1.00;;;21.40;96.40;;;;;;5077066;28;20744;-55
2022/08/31 11:38:53;;;;;;;5.03;0.90;;;21.50;96.70;;;;;;5088741;28;20044;-54
2022/08/31 11:41:34;;;;;;;1.95;0.60;;;21.60;96.80;;;;;;5096156;28;20058;-54
2022/08/31 11:44:03;;;;;;;4.87;0.80;;;21.80;96.60;;;;;;5097321;28;20044;-54
2022/08/31 11:46:44;;;;;;;2.28;0.80;;;21.80;97.10;;;;;;5098116;28;20070;-54
2022/08/31 11:49:34;;;;;;;2.50;0.60;;;22.10;96.50;;;;;;5095767;28;20051;-55
2022/08/31 11:52:10;;;;;;;3.50;0.68;;;22.10;96.40;;;;;;5097504;28;20052;-54
2022/08/31 11:54:42;;;;;;;2.67;0.65;;;22.00;96.60;;;;;;5098022;28;20048;-53
2022/08/31 11:57:14;;;;;;;1.65;0.63;;;22.00;96.50;;;;;;5096571;28;20115;-54
2022/08/31 11:59:47;;;;;;;1.13;0.60;;;22.00;96.10;;;;;;5098246;28;20400;-53
2022/08/31 12:02:42;;;;;;;1.67;0.63;;;22.00;96.00;;;;;;5079249;28;20044;-55
2022/08/31 12:05:08;;;;;;;2.58;0.60;;;22.10;95.70;;;;;;5094302;28;20056;-53
2022/08/31 12:07:34;;;;;;;1.85;0.70;;;22.20;96.10;;;;;;5097314;28;20042;-54
2022/08/31 12:10:06;;;;;;;2.10;0.70;;;22.40;96.00;;;;;;5096583;28;20048;-53
2022/08/31 12:12:44;;;;;;;;;;;22.30;95.50;;;;;;5098423;28;20052;-54
2022/08/31 12:15:32;;;;;;;2.08;0.57;;;22.30;95.30;;;;;;5097282;28;20012;-53
2022/08/31 12:18:40;;;;;;;3.42;0.60;;;22.40;95.70;;;;;;5082286;28;20044;-54
2022/08/31 12:24:32;;;;;;;3.65;1.08;;;22.30;95.00;;;;;;5077353;28;20051;-54
2022/08/31 12:27:16;;;;;;;4.90;1.08;;;22.20;95.10;;;;;;5076269;28;20044;-55
2022/08/31 12:29:42;;;;;;;2.65;0.80;;;22.40;95.10;;;;;;5077446;28;20067;-54
2022/08/31 12:32:40;;;;;;;2.15;0.77;;;22.40;96.40;;;;;;5077361;28;20048;-53
2022/08/31 12:35:19;;;;;;;4.40;1.05;;;22.30;96.10;;;;;;5079803;28;20077;-54
2022/08/31 12:38:01;;;;;;;2.15;0.65;;;22.60;97.20;;;;;;5085695;28;20048;-54
2022/08/31 12:40:30;;;;;;;2.08;0.80;;;22.60;95.20;;;;;;5099914;28;20048;-51
2022/08/31 12:42:58;;;;;;;1.90;0.85;;;22.60;95.20;;;;;;5101205;28;20056;-53
2022/08/31 12:45:50;;;;;;;7.03;1.42;;;22.60;95.20;;;;;;5100897;28;20040;-51
2022/08/31 12:48:47;;;;;;;4.57;1.13;;;22.50;96.40;;;;;;5100395;28;20040;-53
2022/08/31 12:51:31;;;;;;;5.68;1.00;;;22.40;96.60;;;;;;5101032;28;20113;-52
2022/08/31 12:54:23;;;;;;;4.95;1.17;;;22.40;96.90;;;;;;5100804;28;20058;-50
2022/08/31 12:56:57;;;;;;;3.75;0.85;;;22.50;96.70;;;;;;5100076;28;20066;-52
2022/08/31 12:59:26;;;;;;;3.65;1.00;;;22.50;97.00;;;;;;5100714;28;20036;-53
2022/08/31 13:01:52;;;;;;;2.58;0.90;;;22.30;97.30;;;;;;5099475;28;20111;-54
2022/08/31 13:04:19;;;;;;;3.45;0.90;;;22.10;97.10;;;;;;5100866;28;20040;-49
2022/08/31 13:06:47;;;;;;;4.50;0.88;;;22.00;97.30;;;;;;5100328;28;20044;-50
2022/08/31 13:09:31;;;;;;;4.40;0.90;;;22.10;97.50;;;;;;5099699;28;20047;-51
2022/08/31 13:11:59;;;;;;;3.30;0.70;;;22.20;97.50;;;;;;5100671;28;20401;-52
2022/08/31 13:14:38;;;;;;;3.30;0.90;;;22.10;97.70;;;;;;5099504;28;20040;-52
2022/08/31 13:17:06;;;;;;;4.43;0.95;;;22.10;97.80;;;;;;5093243;28;20040;-52
2022/08/31 13:19:33;;;;;;;1.83;0.70;;;22.10;97.80;;;;;;5079418;28;20046;-52
2022/08/31 13:22:04;;;;;;;3.38;0.80;;;22.10;97.50;;;;;;5079065;28;20044;-51
2022/08/31 13:24:34;;;;;;;4.15;0.73;;;22.00;97.50;;;;;;5079729;28;20158;-51
2022/08/31 13:27:24;;;;;;;4.03;0.90;;;21.90;98.00;;;;;;5077578;28;20040;-53
2022/08/31 13:29:52;;;;;;;3.38;0.80;;;21.90;97.90;;;;;;5079320;28;20052;-52